Time;durP1;ratioP1;P1;durP2;ratioP2;P2;SDS_P1;SDS_P2;PMS_P1;PMS_P2;Temp;Humidity;BMP_temperature;BMP_pressure;BME280_temperature;BME280_humidity;BME280_pressure;Samples;Min_cycle;Max_cycle;Signal;HPM_P1;HPM_P2
2022/08/29 00:01:05;;;;;;;0.43;0.43;;;26.00;67.30;;;;;;5064132;27;88887;-53
2022/08/29 00:03:33;;;;;;;1.13;0.60;;;26.00;67.20;;;;;;5052944;27;87185;-54
2022/08/29 00:06:01;;;;;;;0.40;0.40;;;26.00;67.20;;;;;;5042804;27;87049;-53
2022/08/29 00:08:30;;;;;;;0.60;0.50;;;26.00;67.20;;;;;;5042886;28;88198;-54
2022/08/29 00:10:58;;;;;;;0.47;0.43;;;26.00;67.20;;;;;;5043665;28;88912;-54
2022/08/29 00:13:26;;;;;;;0.87;0.50;;;26.00;67.20;;;;;;5043192;28;87091;-53
2022/08/29 00:15:54;;;;;;;0.40;0.40;;;26.00;67.20;;;;;;5042544;28;86999;-53
2022/08/29 00:18:24;;;;;;;2.33;0.43;;;26.00;67.20;;;;;;5042136;28;90133;-54
2022/08/29 00:20:52;;;;;;;0.90;0.50;;;26.00;67.30;;;;;;5042137;28;92207;-54
2022/08/29 00:23:20;;;;;;;0.53;0.43;;;26.00;67.20;;;;;;5043112;28;87139;-53
2022/08/29 00:25:48;;;;;;;0.83;0.43;;;25.90;67.90;;;;;;5043197;27;87070;-53
2022/08/29 00:28:17;;;;;;;1.23;0.67;;;26.00;67.20;;;;;;5042082;27;88038;-53
2022/08/29 00:30:46;;;;;;;0.50;0.50;;;26.00;67.10;;;;;;5042873;28;87569;-54
2022/08/29 00:33:14;;;;;;;0.60;0.60;;;26.00;67.10;;;;;;5042444;28;87038;-53
2022/08/29 00:35:43;;;;;;;0.70;0.43;;;26.00;67.10;;;;;;5042574;28;86301;-52
2022/08/29 00:38:14;;;;;;;0.67;0.67;;;26.00;66.90;;;;;;5042762;28;89070;-53
2022/08/29 00:40:45;;;;;;;0.80;0.60;;;26.00;66.80;;;;;;5042524;28;88634;-53
2022/08/29 00:43:19;;;;;;;1.37;0.40;;;25.70;66.50;;;;;;5042316;28;88693;-53
2022/08/29 00:45:50;;;;;;;0.33;0.33;;;25.90;66.80;;;;;;5042779;28;87108;-55
2022/08/29 00:48:18;;;;;;;1.23;0.50;;;25.90;66.70;;;;;;5042524;28;89165;-55
2022/08/29 00:50:50;;;;;;;0.60;0.60;;;25.90;67.10;;;;;;5042837;28;88999;-54
2022/08/29 00:53:29;;;;;;;0.50;0.50;;;25.80;66.80;;;;;;5042148;28;86824;-52
2022/08/29 00:55:58;;;;;;;0.37;0.33;;;25.80;66.70;;;;;;5042845;28;88502;-55
2022/08/29 00:58:30;;;;;;;0.50;0.40;;;25.80;66.90;;;;;;5045186;27;89207;-55
2022/08/29 01:00:58;;;;;;;0.53;0.53;;;25.80;67.70;;;;;;5055386;27;88899;-53
2022/08/29 01:03:27;;;;;;;1.30;0.50;;;25.80;66.90;;;;;;5042648;28;86984;-53
2022/08/29 01:05:57;;;;;;;0.67;0.43;;;25.80;66.70;;;;;;5042361;28;87020;-53
2022/08/29 01:08:25;;;;;;;0.80;0.60;;;25.70;66.80;;;;;;5041440;28;90389;-53
2022/08/29 01:13:41;;;;;;;0.83;0.30;;;25.80;66.70;;;;;;5022744;28;87017;-53
2022/08/29 01:16:09;;;;;;;3.17;0.60;;;25.90;66.50;;;;;;5038209;28;87170;-53
2022/08/29 01:18:37;;;;;;;0.30;0.30;;;25.90;66.70;;;;;;5040712;27;89075;-53
2022/08/29 01:21:12;;;;;;;0.70;0.60;;;25.80;66.80;;;;;;5041192;28;88920;-53
2022/08/29 01:23:42;;;;;;;0.47;0.40;;;25.80;66.50;;;;;;5042167;28;88095;-53
2022/08/29 01:26:12;;;;;;;0.93;0.87;;;25.90;66.80;;;;;;5042323;28;86396;-53
2022/08/29 01:28:44;;;;;;;0.50;0.50;;;25.80;66.80;;;;;;5044392;27;89317;-53
2022/08/29 01:31:14;;;;;;;1.17;0.77;;;25.80;66.50;;;;;;5044242;27;87690;-53
2022/08/29 01:34:02;;;;;;;0.93;0.50;;;25.80;66.50;;;;;;5037291;28;88158;-53
2022/08/29 01:36:33;;;;;;;0.63;0.40;;;25.80;66.70;;;;;;5040968;28;87063;-53
2022/08/29 01:39:01;;;;;;;0.87;0.53;;;25.80;66.50;;;;;;5041423;28;89234;-54
2022/08/29 01:41:31;;;;;;;0.77;0.57;;;25.80;66.70;;;;;;5041739;28;88908;-53
2022/08/29 01:44:01;;;;;;;0.43;0.40;;;25.80;66.60;;;;;;5040666;28;87905;-53
2022/08/29 01:46:31;;;;;;;0.97;0.70;;;25.80;66.30;;;;;;5041084;28;87163;-53
2022/08/29 01:49:00;;;;;;;0.57;0.50;;;25.90;66.50;;;;;;5041857;28;89217;-53
2022/08/29 01:51:28;;;;;;;0.40;0.40;;;25.80;66.50;;;;;;5041731;28;88998;-53
2022/08/29 01:53:56;;;;;;;0.83;0.50;;;25.80;66.60;;;;;;5041988;28;86929;-53
2022/08/29 01:56:26;;;;;;;0.40;0.40;;;25.80;66.50;;;;;;5041972;28;87003;-53
2022/08/29 01:58:55;;;;;;;0.70;0.40;;;25.80;66.40;;;;;;5043337;27;89233;-54
2022/08/29 02:01:25;;;;;;;0.30;0.30;;;25.80;66.80;;;;;;5041596;28;89768;-53
2022/08/29 02:03:54;;;;;;;0.40;0.40;;;25.80;66.40;;;;;;5041448;28;87119;-53
2022/08/29 02:06:22;;;;;;;1.17;0.50;;;25.80;66.70;;;;;;5041403;28;87057;-52
2022/08/29 02:08:50;;;;;;;0.60;0.40;;;25.80;66.80;;;;;;5041212;28;89215;-53
2022/08/29 02:11:18;;;;;;;1.80;0.50;;;25.80;66.60;;;;;;5041129;28;89006;-54
2022/08/29 02:13:48;;;;;;;0.77;0.70;;;25.80;66.80;;;;;;5042157;28;86966;-53
2022/08/29 02:16:18;;;;;;;1.13;0.63;;;25.80;66.40;;;;;;5041057;28;86281;-53
2022/08/29 02:18:46;;;;;;;0.33;0.30;;;25.80;66.50;;;;;;5041302;28;89115;-53
2022/08/29 02:21:15;;;;;;;0.73;0.40;;;25.80;66.60;;;;;;5040491;28;88917;-53
2022/08/29 02:23:44;;;;;;;0.47;0.40;;;25.80;66.40;;;;;;5040606;28;88759;-53
2022/08/29 02:26:12;;;;;;;0.67;0.50;;;25.80;66.80;;;;;;5041371;28;87712;-53
2022/08/29 02:28:40;;;;;;;0.60;0.60;;;25.80;66.60;;;;;;5041177;28;89153;-53
2022/08/29 02:31:08;;;;;;;1.00;0.60;;;25.80;66.60;;;;;;5040007;28;89030;-53
2022/08/29 02:33:38;;;;;;;1.27;0.50;;;25.80;66.60;;;;;;5040965;27;87123;-54
2022/08/29 02:36:06;;;;;;;3.83;0.70;;;25.80;66.60;;;;;;5041125;28;87088;-53
2022/08/29 02:38:34;;;;;;;0.67;0.53;;;25.80;66.50;;;;;;5041137;28;89050;-54
2022/08/29 02:41:04;;;;;;;0.90;0.60;;;25.80;66.80;;;;;;5040672;28;88917;-53
2022/08/29 02:43:32;;;;;;;1.10;0.43;;;25.70;66.50;;;;;;5040899;28;88404;-54
2022/08/29 02:46:00;;;;;;;3.80;0.90;;;25.80;66.80;;;;;;5041251;28;86999;-53
2022/08/29 02:48:28;;;;;;;1.33;0.50;;;25.70;66.70;;;;;;5040193;28;90096;-54
2022/08/29 02:50:58;;;;;;;0.67;0.60;;;25.70;66.60;;;;;;5040378;28;89888;-53
2022/08/29 02:53:28;;;;;;;0.70;0.50;;;25.70;66.80;;;;;;5038901;28;87191;-53
2022/08/29 02:55:56;;;;;;;3.73;0.60;;;25.70;66.50;;;;;;5034346;28;87277;-54
2022/08/29 02:58:24;;;;;;;1.73;0.60;;;25.60;66.80;;;;;;5035216;28;89155;-54
2022/08/29 03:00:52;;;;;;;1.80;0.67;;;25.60;66.90;;;;;;5036588;28;88853;-53
2022/08/29 03:03:21;;;;;;;1.20;0.60;;;25.60;66.80;;;;;;5040513;28;87012;-53
2022/08/29 03:05:49;;;;;;;0.80;0.53;;;25.70;67.00;;;;;;5040789;28;86351;-53
2022/08/29 03:08:19;;;;;;;0.50;0.50;;;25.70;67.00;;;;;;5040853;28;89157;-53
2022/08/29 03:10:47;;;;;;;2.47;0.80;;;25.60;66.90;;;;;;5040220;27;89334;-53
2022/08/29 03:13:17;;;;;;;1.30;1.00;;;25.60;66.90;;;;;;5040046;28;88116;-53
2022/08/29 03:15:44;;;;;;;1.17;1.07;;;25.60;66.70;;;;;;5039409;28;87027;-53
2022/08/29 03:18:13;;;;;;;1.17;0.90;;;25.60;66.90;;;;;;5040648;28;88982;-54
2022/08/29 03:20:42;;;;;;;1.37;0.70;;;25.60;66.90;;;;;;5040026;27;87769;-53
2022/08/29 03:23:10;;;;;;;1.03;0.90;;;25.60;66.90;;;;;;5040514;28;87160;-55
2022/08/29 03:25:39;;;;;;;1.50;1.30;;;25.50;67.00;;;;;;5039917;28;87169;-53
2022/08/29 03:28:07;;;;;;;1.43;1.00;;;25.50;67.00;;;;;;5040496;28;89123;-55
2022/08/29 03:30:35;;;;;;;1.40;0.90;;;25.50;67.00;;;;;;5040770;28;88865;-55
2022/08/29 03:33:04;;;;;;;1.40;0.93;;;25.50;67.00;;;;;;5040192;28;87104;-53
2022/08/29 03:35:37;;;;;;;1.70;1.40;;;25.50;67.00;;;;;;5025975;28;87011;-52
2022/08/29 03:38:06;;;;;;;1.10;1.00;;;25.60;67.00;;;;;;5040157;28;90119;-54
2022/08/29 03:40:34;;;;;;;2.47;1.80;;;25.50;67.00;;;;;;5039285;28;89954;-50
2022/08/29 03:43:04;;;;;;;2.03;1.33;;;25.50;67.00;;;;;;5043489;27;87134;-50
2022/08/29 03:45:32;;;;;;;2.10;1.27;;;25.50;67.10;;;;;;5037074;28;87021;-50
2022/08/29 03:48:00;;;;;;;2.57;1.50;;;25.50;67.10;;;;;;5044551;28;89438;-50
2022/08/29 03:50:28;;;;;;;2.80;1.40;;;25.50;67.20;;;;;;5042984;28;88960;-50
2022/08/29 03:52:56;;;;;;;4.63;1.77;;;25.50;67.20;;;;;;5042957;28;87230;-50
2022/08/29 03:55:24;;;;;;;2.47;2.03;;;25.50;67.10;;;;;;5040268;28;86382;-50
2022/08/29 03:57:54;;;;;;;4.70;1.90;;;25.50;67.20;;;;;;5043875;28;89107;-50
2022/08/29 04:00:24;;;;;;;4.07;2.07;;;25.50;67.00;;;;;;5041032;27;88796;-50
2022/08/29 04:02:54;;;;;;;2.37;1.70;;;25.50;67.20;;;;;;5043029;28;87952;-51
2022/08/29 04:05:22;;;;;;;1.63;1.40;;;25.50;67.10;;;;;;5043338;28;86899;-50
2022/08/29 04:07:51;;;;;;;3.00;1.93;;;25.50;67.20;;;;;;5043388;28;89223;-50
2022/08/29 04:10:21;;;;;;;5.30;1.67;;;25.50;66.90;;;;;;5042612;28;88946;-51
2022/08/29 04:12:49;;;;;;;1.40;1.30;;;25.50;67.00;;;;;;5041769;28;87100;-50
2022/08/29 04:15:22;;;;;;;1.90;1.30;;;25.50;67.20;;;;;;5042047;27;87007;-51
2022/08/29 04:17:53;;;;;;;2.10;1.40;;;25.50;67.20;;;;;;5042015;27;89241;-51
2022/08/29 04:20:21;;;;;;;2.97;1.13;;;25.50;67.10;;;;;;5041975;28;88855;-51
2022/08/29 04:22:52;;;;;;;1.53;1.30;;;25.50;67.00;;;;;;5042246;28;87024;-51
2022/08/29 04:25:22;;;;;;;2.07;1.40;;;25.50;67.20;;;;;;5038941;28;87158;-51
2022/08/29 04:27:50;;;;;;;2.03;1.50;;;25.50;67.20;;;;;;5041548;28;90259;-51
2022/08/29 04:30:19;;;;;;;1.83;1.03;;;25.40;67.20;;;;;;5043120;28;89995;-51
2022/08/29 04:32:48;;;;;;;1.63;1.20;;;25.40;67.10;;;;;;5041696;28;87113;-51
2022/08/29 04:35:18;;;;;;;2.33;1.40;;;25.40;67.40;;;;;;5043001;28;86758;-51
2022/08/29 04:37:46;;;;;;;1.53;1.20;;;25.50;67.50;;;;;;5043384;28;89030;-51
2022/08/29 04:40:16;;;;;;;4.00;1.93;;;25.40;67.30;;;;;;5042998;28;88934;-51
2022/08/29 04:42:45;;;;;;;3.57;1.57;;;25.50;67.20;;;;;;5043079;28;87038;-51
2022/08/29 04:45:15;;;;;;;1.90;1.43;;;25.50;67.30;;;;;;5043070;28;86228;-51
2022/08/29 04:47:43;;;;;;;2.87;1.10;;;25.50;67.20;;;;;;5042746;28;89730;-51
2022/08/29 04:50:12;;;;;;;3.17;0.90;;;25.40;67.30;;;;;;5041785;28;89012;-51
2022/08/29 04:52:42;;;;;;;1.83;1.43;;;25.40;67.20;;;;;;5041444;28;87949;-51
2022/08/29 04:55:11;;;;;;;2.03;1.07;;;25.50;67.30;;;;;;5041810;28;89284;-51
2022/08/29 04:57:39;;;;;;;1.30;1.20;;;25.40;67.20;;;;;;5042433;28;89168;-51
2022/08/29 05:00:11;;;;;;;2.50;0.93;;;25.40;67.50;;;;;;5042443;28;88936;-51
2022/08/29 05:02:39;;;;;;;1.70;0.83;;;25.40;67.10;;;;;;5041968;28;88511;-52
2022/08/29 05:05:08;;;;;;;1.87;1.23;;;25.40;67.20;;;;;;5042243;28;87113;-50
2022/08/29 05:07:36;;;;;;;2.40;1.30;;;25.40;67.10;;;;;;5041344;28;89195;-51
2022/08/29 05:10:08;;;;;;;3.13;0.83;;;25.40;67.20;;;;;;5042090;28;88725;-50
2022/08/29 05:12:37;;;;;;;1.10;0.80;;;25.40;67.00;;;;;;5041777;28;87134;-54
2022/08/29 05:15:05;;;;;;;4.47;1.03;;;25.40;67.20;;;;;;5041769;28;87683;-51
2022/08/29 05:17:33;;;;;;;1.30;0.90;;;25.40;67.00;;;;;;5041225;28;92840;-52
2022/08/29 05:20:03;;;;;;;0.80;0.77;;;25.30;67.10;;;;;;5041351;28;90001;-51
2022/08/29 05:22:32;;;;;;;1.03;0.80;;;25.30;67.00;;;;;;5041330;27;87135;-51
2022/08/29 05:25:01;;;;;;;0.93;0.90;;;25.40;67.20;;;;;;5041727;28;87045;-51
2022/08/29 05:27:38;;;;;;;1.07;0.90;;;25.40;66.90;;;;;;5041888;28;89520;-50
2022/08/29 05:30:08;;;;;;;0.93;0.70;;;25.40;67.20;;;;;;5042339;28;91206;-51
2022/08/29 05:32:37;;;;;;;2.77;0.80;;;25.30;66.80;;;;;;5041513;28;87237;-51
2022/08/29 05:35:05;;;;;;;1.00;0.83;;;25.30;66.90;;;;;;5041477;28;86305;-51
2022/08/29 05:37:33;;;;;;;1.50;0.63;;;25.40;67.00;;;;;;5041223;28;88577;-51
2022/08/29 05:40:04;;;;;;;0.43;0.43;;;25.30;67.10;;;;;;5041553;28;88912;-51
2022/08/29 05:42:34;;;;;;;1.17;0.60;;;25.30;67.00;;;;;;5040844;27;87963;-50
2022/08/29 05:45:04;;;;;;;1.13;0.70;;;25.40;67.30;;;;;;5040548;28;86909;-51
2022/08/29 05:47:33;;;;;;;1.40;0.70;;;25.40;67.10;;;;;;5037806;28;89285;-52
2022/08/29 05:50:01;;;;;;;5.87;0.87;;;25.40;67.20;;;;;;5041221;28;88842;-50
2022/08/29 05:52:29;;;;;;;1.27;0.63;;;25.40;67.20;;;;;;5041503;28;87079;-53
2022/08/29 05:54:57;;;;;;;0.87;0.80;;;25.40;67.10;;;;;;5041454;28;87004;-50
2022/08/29 05:57:26;;;;;;;3.77;0.97;;;25.40;67.20;;;;;;5039735;28;89183;-50
2022/08/29 05:59:56;;;;;;;1.33;0.60;;;25.40;67.30;;;;;;5040495;27;91255;-52
2022/08/29 06:02:25;;;;;;;2.27;0.60;;;25.30;67.00;;;;;;5040238;28;87199;-52
2022/08/29 06:04:53;;;;;;;2.33;1.20;;;25.40;67.10;;;;;;5040282;27;87301;-52
2022/08/29 06:07:21;;;;;;;0.63;0.63;;;25.30;67.00;;;;;;5039951;28;89135;-52
2022/08/29 06:09:51;;;;;;;1.17;0.80;;;25.30;66.90;;;;;;5040885;28;89606;-51
2022/08/29 06:12:19;;;;;;;4.63;1.10;;;25.30;66.80;;;;;;5040749;28;87187;-51
2022/08/29 06:14:51;;;;;;;1.87;1.20;;;25.30;66.80;;;;;;5040274;28;87095;-52
2022/08/29 06:17:20;;;;;;;5.23;1.10;;;25.30;66.80;;;;;;5038686;28;89283;-52
2022/08/29 06:19:50;;;;;;;1.43;1.00;;;;;;;;;;5038496;28;88932;-52
2022/08/29 06:22:18;;;;;;;2.80;1.70;;;;;;;;;;5039358;27;86980;-52
2022/08/29 06:24:47;;;;;;;2.27;1.53;;;;;;;;;;5036928;27;87601;-51
2022/08/29 06:27:16;;;;;;;3.53;1.93;;;;;;;;;;5038815;28;89236;-51
2022/08/29 06:29:44;;;;;;;3.40;2.40;;;;;;;;;;5039109;27;89180;-51
2022/08/29 06:32:12;;;;;;;5.43;2.13;;;25.10;91.80;;;;;;5039664;28;87996;-51
2022/08/29 06:34:42;;;;;;;5.10;2.53;;;;;;;;;;5039462;28;87217;-51
2022/08/29 06:37:10;;;;;;;3.23;2.13;;;;;;;;;;5038558;28;89106;-51
2022/08/29 06:39:39;;;;;;;4.00;2.50;;;;;;;;;;5039317;28;87729;-52
2022/08/29 06:42:07;;;;;;;4.77;2.57;;;;;;;;;;5039275;28;87121;-51
2022/08/29 06:44:35;;;;;;;4.37;2.47;;;;;;;;;;5039287;28;87061;-51
2022/08/29 06:47:11;;;;;;;6.07;2.77;;;;;;;;;;5035531;27;88752;-51
2022/08/29 06:49:39;;;;;;;7.00;3.07;;;;;;;;;;5038966;28;89064;-52
2022/08/29 06:52:09;;;;;;;8.67;3.50;;;;;;;;;;5038322;28;87043;-51
2022/08/29 06:54:37;;;;;;;5.23;2.93;;;;;;;;;;5039319;27;87148;-52
2022/08/29 06:57:06;;;;;;;4.63;3.63;;;;;;;;;;5037347;28;90153;-52
2022/08/29 06:59:34;;;;;;;8.80;4.50;;;;;;;;;;5039567;28;89875;-51
2022/08/29 07:02:02;;;;;;;9.30;3.77;;;;;;;;;;5040588;28;87037;-52
2022/08/29 07:04:31;;;;;;;5.57;3.27;;;;;;;;;;5040668;28;87126;-53
2022/08/29 07:07:00;;;;;;;8.50;4.17;;;;;;;;;;5040495;28;88911;-53
2022/08/29 07:09:31;;;;;;;7.80;3.67;;;25.60;91.30;;;;;;5040546;28;88843;-50
2022/08/29 07:11:59;;;;;;;6.60;4.20;;;;;;;;;;5039604;28;86886;-50
2022/08/29 07:14:27;;;;;;;5.70;3.23;;;;;;;;;;5040432;28;86162;-51
2022/08/29 07:16:56;;;;;;;7.63;3.90;;;25.60;90.70;;;;;;5039532;27;89018;-51
2022/08/29 07:19:24;;;;;;;4.97;3.77;;;;;;;;;;5022312;28;88937;-51
2022/08/29 07:21:53;;;;;;;8.23;3.67;;;;;;;;;;5022751;28;87970;-54
2022/08/29 07:24:25;;;;;;;7.60;3.20;;;;;;;;;;5035169;28;87058;-50
2022/08/29 07:26:54;;;;;;;6.17;2.73;;;25.60;90.90;;;;;;5043349;28;89145;-52
2022/08/29 07:29:23;;;;;;;2.27;1.77;;;;;;;;;;5043926;28;88991;-52
2022/08/29 07:31:51;;;;;;;6.27;2.57;;;;;;;;;;5044520;28;86951;-51
2022/08/29 07:34:20;;;;;;;5.57;2.23;;;;;;;;;;5044617;28;86956;-51
2022/08/29 07:36:48;;;;;;;4.03;2.33;;;;;;;;;;5043665;28;89198;-53
2022/08/29 07:39:17;;;;;;;3.20;1.87;;;;;;;;;;5044334;28;89312;-51
2022/08/29 07:41:46;;;;;;;5.47;2.83;;;;;;;;;;5043966;28;87035;-51
2022/08/29 07:44:16;;;;;;;5.13;2.83;;;;;;;;;;5044063;28;87040;-51
2022/08/29 07:46:44;;;;;;;5.43;2.37;;;;;;;;;;5043385;28;89903;-52
2022/08/29 07:49:13;;;;;;;5.43;2.67;;;;;;;;;;5044184;28;89881;-52
2022/08/29 07:51:41;;;;;;;3.67;2.47;;;;;;;;;;5044503;28;87097;-51
2022/08/29 07:54:15;;;;;;;6.87;2.10;;;;;;;;;;5044112;28;87931;-52
2022/08/29 07:56:43;;;;;;;2.93;1.77;;;;;;;;;;5043579;28;88406;-51
2022/08/29 07:59:12;;;;;;;3.60;1.30;;;;;;;;;;5043837;28;88861;-52
2022/08/29 08:01:41;;;;;;;2.87;1.30;;;;;;;;;;5044237;28;86937;-52
2022/08/29 08:04:10;;;;;;;1.73;0.93;;;;;;;;;;5044546;28;86240;-51
2022/08/29 08:06:39;;;;;;;2.30;1.10;;;;;;;;;;5043540;28;89157;-50
2022/08/29 08:09:09;;;;;;;2.60;1.50;;;;;;;;;;5043660;28;88814;-50
2022/08/29 08:11:39;;;;;;;2.73;1.10;;;;;;;;;;5042847;28;88008;-51
2022/08/29 08:14:07;;;;;;;4.33;1.43;;;;;;;;;;5044287;28;87064;-51
2022/08/29 08:16:36;;;;;;;2.33;1.67;;;;;;;;;;5043851;28;89152;-51
2022/08/29 08:19:05;;;;;;;2.50;0.97;;;;;;;;;;5043389;28;88818;-51
2022/08/29 08:21:34;;;;;;;3.03;1.30;;;;;;;;;;5043362;28;87062;-51
2022/08/29 08:24:03;;;;;;;1.77;1.00;;;;;;;;;;5043338;28;87650;-51
2022/08/29 08:26:32;;;;;;;1.60;1.30;;;;;;;;;;5043691;28;89134;-51
2022/08/29 08:29:00;;;;;;;1.57;0.97;;;;;;;;;;5043603;27;88820;-51
2022/08/29 08:31:29;;;;;;;0.77;0.77;;;;;;;;;;5043354;28;86983;-51
2022/08/29 08:33:57;;;;;;;1.47;1.10;;;;;;;;;;5042917;28;87367;-51
2022/08/29 08:36:28;;;;;;;2.23;0.97;;;;;;;;;;5042292;28;90070;-51
2022/08/29 08:38:57;;;;;;;1.63;0.67;;;;;;;;;;5043258;28;89833;-51
2022/08/29 08:41:29;;;;;;;1.90;0.90;;;;;;;;;;5043292;28;86921;-51
2022/08/29 08:43:57;;;;;;;2.60;1.23;;;;;;;;;;5042645;27;86917;-51
2022/08/29 08:46:28;;;;;;;2.77;1.33;;;;;;;;;;5043609;28;89182;-51
2022/08/29 08:48:56;;;;;;;1.50;0.90;;;;;;;;;;5042992;28;88766;-51
2022/08/29 08:51:28;;;;;;;2.43;1.00;;;25.30;81.80;;;;;;5043640;28;86949;-51
2022/08/29 08:53:57;;;;;;;2.97;0.70;;;;;;;;;;5043072;28;86239;-53
2022/08/29 08:56:29;;;;;;;1.40;0.63;;;25.30;81.50;;;;;;5042973;28;89184;-50
2022/08/29 08:58:58;;;;;;;1.20;0.90;;;;;;;;;;5042179;28;88827;-51
2022/08/29 09:01:27;;;;;;;1.37;0.80;;;25.30;80.80;;;;;;5043037;28;87854;-50
2022/08/29 09:04:14;;;;;;;1.77;0.60;;;25.30;78.90;;;;;;5043111;28;86932;-51
2022/08/29 09:06:53;;;;;;;1.03;0.73;;;25.30;78.60;;;;;;5042797;28;89456;-53
2022/08/29 09:09:27;;;;;;;1.10;0.87;;;25.30;77.20;;;;;;5042927;28;88855;-51
2022/08/29 09:12:00;;;;;;;1.37;0.83;;;25.40;77.70;;;;;;5043357;28;86816;-50
2022/08/29 09:14:39;;;;;;;0.50;0.50;;;25.30;79.90;;;;;;5042658;28;86929;-50
2022/08/29 09:17:08;;;;;;;4.33;0.97;;;25.30;78.40;;;;;;5042438;28;89086;-50
2022/08/29 09:19:36;;;;;;;2.07;0.70;;;25.30;79.00;;;;;;5042387;28;88897;-50
2022/08/29 09:22:10;;;;;;;2.20;0.83;;;25.40;79.20;;;;;;5042909;28;87074;-50
2022/08/29 09:24:42;;;;;;;2.27;0.87;;;25.40;79.90;;;;;;5042567;28;87000;-51
2022/08/29 09:27:17;;;;;;;3.67;0.70;;;;;;;;;;5041696;28;90217;-52
2022/08/29 09:29:45;;;;;;;0.93;0.60;;;;;;;;;;5042208;28;89843;-50
2022/08/29 09:32:14;;;;;;;1.13;0.90;;;;;;;;;;5043207;28;86983;-50
2022/08/29 09:34:49;;;;;;;3.77;0.90;;;;;;;;;;5042412;28;87006;-51
2022/08/29 09:37:37;;;;;;;1.70;0.80;;;;;;;;;;5042040;28;89104;-52
2022/08/29 09:40:09;;;;;;;1.17;1.00;;;;;;;;;;5041115;27;88417;-51
2022/08/29 09:42:38;;;;;;;0.77;0.77;;;;;;;;;;5041929;28;87479;-52
2022/08/29 09:45:22;;;;;;;1.60;0.70;;;25.20;82.40;;;;;;5040575;28;86404;-53
2022/08/29 09:47:50;;;;;;;0.77;0.67;;;25.20;72.00;;;;;;5022377;28;89120;-52
2022/08/29 09:50:20;;;;;;;1.33;1.03;;;;;;;;;;5022986;28;88363;-51
2022/08/29 09:52:53;;;;;;;0.90;0.80;;;;;;;;;;5027198;28;87989;-52
2022/08/29 09:55:24;;;;;;;0.93;0.73;;;;;;;;;;5046034;27;87292;-52
2022/08/29 09:57:53;;;;;;;2.60;0.67;;;;;;;;;;5044077;27;89135;-52
2022/08/29 10:00:25;;;;;;;0.63;0.60;;;25.20;82.40;;;;;;5042562;27;88908;-52
2022/08/29 10:02:55;;;;;;;1.50;1.03;;;25.30;80.50;;;;;;5044852;27;87073;-53
2022/08/29 10:05:33;;;;;;;1.33;0.70;;;25.30;80.00;;;;;;5041749;28;86924;-51
2022/08/29 10:08:25;;;;;;;2.37;0.80;;;25.30;78.40;;;;;;5045982;27;89353;-53
2022/08/29 10:10:54;;;;;;;4.03;0.77;;;25.30;76.70;;;;;;5039968;27;88256;-53
2022/08/29 10:13:23;;;;;;;1.67;0.90;;;25.40;78.20;;;;;;5029412;28;87110;-52
2022/08/29 10:16:01;;;;;;;1.10;0.83;;;25.40;78.70;;;;;;5029328;28;87044;-52
2022/08/29 10:18:36;;;;;;;3.33;0.90;;;25.40;77.50;;;;;;5032869;27;89773;-52
2022/08/29 10:21:15;;;;;;;1.80;0.80;;;25.40;77.30;;;;;;5021441;28;90209;-52
2022/08/29 10:23:53;;;;;;;1.90;0.87;;;25.50;78.90;;;;;;5042075;27;87100;-52
2022/08/29 10:26:29;;;;;;;1.23;0.83;;;25.50;77.30;;;;;;5048947;27;87084;-52
2022/08/29 10:29:00;;;;;;;1.23;0.40;;;25.50;75.60;;;;;;5051120;27;86995;-52
2022/08/29 10:31:34;;;;;;;0.97;0.50;;;25.50;77.20;;;;;;5060777;27;87635;-52
2022/08/29 10:34:14;;;;;;;1.10;0.90;;;25.40;76.20;;;;;;5051073;27;87055;-52
2022/08/29 10:36:46;;;;;;;3.00;0.87;;;25.50;76.90;;;;;;5038369;28;86258;-52
2022/08/29 10:39:20;;;;;;;1.17;0.93;;;25.40;75.90;;;;;;5049094;27;88056;-51
2022/08/29 10:41:55;;;;;;;0.77;0.60;;;25.40;80.10;;;;;;5050235;27;88895;-52
2022/08/29 10:44:28;;;;;;;3.40;0.93;;;25.50;76.30;;;;;;5047187;27;88405;-52
2022/08/29 10:47:20;;;;;;;2.77;0.70;;;25.50;78.80;;;;;;5050183;27;87061;-52
2022/08/29 10:49:58;;;;;;;0.73;0.70;;;25.40;76.70;;;;;;5045908;27;91355;-52
2022/08/29 10:52:29;;;;;;;0.77;0.60;;;25.50;76.70;;;;;;5052076;27;88901;-52
2022/08/29 10:55:02;;;;;;;1.17;0.63;;;25.40;78.30;;;;;;5053697;27;86929;-52
2022/08/29 10:57:53;;;;;;;0.60;0.60;;;25.40;76.90;;;;;;5050333;27;86997;-52
2022/08/29 11:00:23;;;;;;;0.57;0.57;;;;;;;;;;5053093;27;89214;-52
2022/08/29 11:02:55;;;;;;;2.10;0.80;;;25.40;75.10;;;;;;5049797;27;89268;-53
2022/08/29 11:05:25;;;;;;;1.00;0.87;;;25.40;76.60;;;;;;5053679;27;87049;-51
2022/08/29 11:07:54;;;;;;;0.97;0.60;;;25.40;77.60;;;;;;5051808;27;87046;-52
2022/08/29 11:10:25;;;;;;;2.13;1.00;;;25.50;75.60;;;;;;5052909;27;90552;-51
2022/08/29 11:12:56;;;;;;;2.90;1.03;;;25.50;76.10;;;;;;5052082;27;89937;-51
2022/08/29 11:15:26;;;;;;;0.80;0.77;;;25.50;76.70;;;;;;5054170;27;87357;-53
2022/08/29 11:17:58;;;;;;;1.17;0.80;;;25.50;78.00;;;;;;5051039;27;86834;-52
2022/08/29 11:20:30;;;;;;;3.00;1.00;;;25.60;79.70;;;;;;5054415;27;87230;-52
2022/08/29 11:23:00;;;;;;;2.97;0.73;;;25.60;77.10;;;;;;5052896;27;87079;-52
2022/08/29 11:25:31;;;;;;;1.60;0.60;;;25.60;76.80;;;;;;5052064;27;87128;-52
2022/08/29 11:28:05;;;;;;;1.20;0.90;;;25.60;77.60;;;;;;5053425;27;86332;-52
2022/08/29 11:30:37;;;;;;;1.90;1.00;;;25.60;75.20;;;;;;5049995;27;89250;-52
2022/08/29 11:33:15;;;;;;;0.87;0.73;;;25.60;78.50;;;;;;5051968;27;87703;-52
2022/08/29 11:35:48;;;;;;;1.47;0.50;;;25.60;75.90;;;;;;5047242;27;87999;-52
2022/08/29 11:38:31;;;;;;;0.80;0.60;;;;;;;;;;5044134;28;86947;-52
2022/08/29 11:41:24;;;;;;;0.80;0.77;;;25.60;75.30;;;;;;5042076;28;89268;-53
2022/08/29 11:43:57;;;;;;;3.77;0.70;;;25.60;77.50;;;;;;5039860;27;89230;-53
2022/08/29 11:46:36;;;;;;;1.27;0.77;;;25.60;77.40;;;;;;5042465;28;87065;-52
2022/08/29 11:49:34;;;;;;;0.70;0.70;;;25.60;76.90;;;;;;5041849;28;87101;-52
2022/08/29 11:52:22;;;;;;;1.17;0.70;;;25.60;73.60;;;;;;5045605;27;89278;-52
2022/08/29 11:55:19;;;;;;;0.70;0.60;;;25.60;75.10;;;;;;5053738;27;88916;-52
2022/08/29 11:57:54;;;;;;;1.93;0.77;;;25.60;73.90;;;;;;5053575;27;87402;-52
2022/08/29 12:00:37;;;;;;;0.97;0.67;;;25.70;77.60;;;;;;5051503;27;87166;-52
2022/08/29 12:03:26;;;;;;;1.53;0.70;;;25.70;72.30;;;;;;5049622;27;90150;-52
2022/08/29 12:06:00;;;;;;;1.23;0.60;;;25.60;73.40;;;;;;5031064;28;89905;-52
2022/08/29 12:08:32;;;;;;;1.40;0.60;;;25.60;74.40;;;;;;5041645;28;87045;-52
2022/08/29 12:11:04;;;;;;;0.63;0.57;;;25.60;74.30;;;;;;5041896;28;87087;-52
2022/08/29 12:14:02;;;;;;;0.50;0.50;;;25.70;78.20;;;;;;5039715;28;87728;-52
2022/08/29 12:16:48;;;;;;;2.60;0.70;;;25.70;73.50;;;;;;5039056;28;89297;-52
2022/08/29 12:19:48;;;;;;;1.87;0.70;;;25.70;73.70;;;;;;5039872;28;87047;-52
2022/08/29 12:22:45;;;;;;;2.23;0.70;;;25.70;73.60;;;;;;5039798;28;86304;-52
2022/08/29 12:25:43;;;;;;;3.43;1.43;;;25.70;74.20;;;;;;5039228;28;89262;-52
2022/08/29 12:28:45;;;;;;;1.10;0.90;;;25.70;73.10;;;;;;5038893;28;88958;-52
2022/08/29 12:31:45;;;;;;;1.07;0.60;;;25.70;73.40;;;;;;5039185;28;87971;-52
2022/08/29 12:34:43;;;;;;;1.70;0.90;;;25.70;74.10;;;;;;5039144;28;87483;-52
2022/08/29 12:37:25;;;;;;;2.80;1.30;;;25.70;74.70;;;;;;5038552;28;88942;-52
2022/08/29 12:40:04;;;;;;;1.47;0.67;;;25.70;73.90;;;;;;5038816;28;89293;-52
2022/08/29 12:42:36;;;;;;;0.53;0.50;;;25.80;74.30;;;;;;5039065;28;87050;-52
2022/08/29 12:45:06;;;;;;;0.80;0.80;;;25.70;74.40;;;;;;5041583;27;87023;-52
2022/08/29 12:47:38;;;;;;;2.10;0.60;;;25.70;73.60;;;;;;5038590;28;89198;-52
2022/08/29 12:50:17;;;;;;;1.73;0.83;;;25.70;73.90;;;;;;5041384;28;87407;-52
2022/08/29 12:52:58;;;;;;;2.97;1.07;;;25.70;73.70;;;;;;5040092;28;87138;-52
2022/08/29 12:55:27;;;;;;;0.60;0.57;;;25.80;73.70;;;;;;5040686;28;87045;-52
2022/08/29 12:57:56;;;;;;;0.90;0.60;;;25.90;73.60;;;;;;5042887;28;90098;-52
2022/08/29 13:00:25;;;;;;;2.53;0.90;;;25.80;73.50;;;;;;5043029;28;89868;-52
2022/08/29 13:03:00;;;;;;;0.90;0.70;;;25.80;73.40;;;;;;5043050;28;87145;-52
2022/08/29 13:05:29;;;;;;;0.73;0.60;;;25.80;73.80;;;;;;5042905;28;86923;-51
2022/08/29 13:07:59;;;;;;;1.07;0.77;;;25.90;74.00;;;;;;5040562;28;89269;-53
2022/08/29 13:10:27;;;;;;;2.77;1.20;;;25.90;73.60;;;;;;5040806;28;89203;-52
2022/08/29 13:13:04;;;;;;;1.43;0.87;;;26.00;73.80;;;;;;5041092;28;87081;-53
2022/08/29 13:15:32;;;;;;;1.20;0.90;;;26.00;74.10;;;;;;5038823;28;86276;-52
2022/08/29 13:18:02;;;;;;;0.83;0.60;;;26.00;73.80;;;;;;5040198;28;88124;-52
2022/08/29 13:20:47;;;;;;;0.87;0.67;;;26.00;73.40;;;;;;5038113;28;88968;-52
2022/08/29 13:23:26;;;;;;;0.93;0.70;;;26.00;73.50;;;;;;5038846;28;88015;-52
2022/08/29 13:25:57;;;;;;;0.70;0.70;;;26.00;73.80;;;;;;5025266;28;87025;-52
2022/08/29 13:28:39;;;;;;;1.80;0.80;;;26.00;74.00;;;;;;5042609;28;89209;-52
2022/08/29 13:31:29;;;;;;;0.80;0.80;;;26.00;72.30;;;;;;5042994;28;88905;-52
2022/08/29 13:34:14;;;;;;;2.37;0.90;;;26.00;72.50;;;;;;5042700;28;87034;-52
2022/08/29 13:36:46;;;;;;;2.20;0.90;;;26.00;72.60;;;;;;5041954;28;87002;-52